Gallaway, Tennessee
Current Conditions -  °F | °C
As of 6:50 PM on Friday 28 Nov 2014 (Local Time) from KNQA Reporting Station
Clear Clear  
Wind Chill: 45°   Ceiling: Unl
Heat Index: 48°   Visibility: 10mi
Dew Point: 28°   Wind: 7mph
Humidity: 46%   Direction: 150°SSE
Pressure: 30.13"   Gusts: NA
Location:  35.33°N, 89.62°W
Report Text: KNQA 290050Z 15006KT 10SM SKC 09/M02 A3013
Loading
Personal Weather Stations






























Interactive Weather Map New forecast layout! Learn more

10-Day Weather Forecast

Advertisements
Track Severe Weather on mobile